BEL9SE EBBR-LSGG
Flight info
| Callsign | BEL9SE |
|---|---|
| Flight time | 1h 1m |
| Altitude | 31000 |
| Route | ROUSY DCT GTQ DCT MOROK Z24 AKITO |
| Aircraft | A320/M-DE3FGHIJ1LORVWY/H |
Departure
| Time | 2026-05-01 13:15 |
|---|---|
| Airport | Brussels Airport (EBBR) |
Arrival
| Time | 2026-05-01 14:17 |
|---|---|
| Airport | Geneva International Airport (LSGG) |
| Time | Latitude | Longitude | Altitude | Speed | Heading |
|---|---|---|---|---|---|
| 2026-05-01 12:17 | 50.90372 | 4.48486 | 121 ft | 0 kts | 155° |
| 2026-05-01 13:07 | 50.90490 | 4.48537 | 120 ft | 10 kts | 65° |
| 2026-05-01 13:07 | 50.90526 | 4.48661 | 117 ft | 14 kts | 65° |
| 2026-05-01 13:07 | 50.90571 | 4.48820 | 118 ft | 17 kts | 66° |
| 2026-05-01 13:08 | 50.90618 | 4.48984 | 119 ft | 13 kts | 66° |
| 2026-05-01 13:08 | 50.90640 | 4.49121 | 121 ft | 13 kts | 111° |
| 2026-05-01 13:08 | 50.90571 | 4.49189 | 121 ft | 12 kts | 156° |
| 2026-05-01 13:08 | 50.90493 | 4.49246 | 123 ft | 14 kts | 155° |
| 2026-05-01 13:09 | 50.90402 | 4.49315 | 123 ft | 14 kts | 154° |
| 2026-05-01 13:09 | 50.90314 | 4.49384 | 123 ft | 15 kts | 153° |
| 2026-05-01 13:09 | 50.90208 | 4.49374 | 127 ft | 16 kts | 195° |
| 2026-05-01 13:09 | 50.90101 | 4.49331 | 129 ft | 16 kts | 194° |
| 2026-05-01 13:10 | 50.89989 | 4.49286 | 133 ft | 16 kts | 194° |
| 2026-05-01 13:10 | 50.89887 | 4.49244 | 138 ft | 14 kts | 194° |
| 2026-05-01 13:10 | 50.89799 | 4.49209 | 143 ft | 12 kts | 195° |
| 2026-05-01 13:10 | 50.89712 | 4.49172 | 148 ft | 14 kts | 194° |
| 2026-05-01 13:11 | 50.89625 | 4.49115 | 153 ft | 13 kts | 213° |
| 2026-05-01 13:11 | 50.89541 | 4.49055 | 156 ft | 14 kts | 195° |
| 2026-05-01 13:11 | 50.89437 | 4.49014 | 160 ft | 16 kts | 193° |
| 2026-05-01 13:11 | 50.89336 | 4.48974 | 164 ft | 11 kts | 198° |
| 2026-05-01 13:12 | 50.89294 | 4.48892 | 165 ft | 10 kts | 250° |
| 2026-05-01 13:12 | 50.89262 | 4.48758 | 164 ft | 18 kts | 249° |
| 2026-05-01 13:12 | 50.89218 | 4.48557 | 163 ft | 20 kts | 250° |
| 2026-05-01 13:12 | 50.89168 | 4.48342 | 164 ft | 22 kts | 251° |
| 2026-05-01 13:13 | 50.89116 | 4.48120 | 164 ft | 21 kts | 249° |
| 2026-05-01 13:13 | 50.89071 | 4.47941 | 164 ft | 14 kts | 238° |
| 2026-05-01 13:13 | 50.88993 | 4.47909 | 172 ft | 12 kts | 163° |
| 2026-05-01 13:13 | 50.88942 | 4.47998 | 178 ft | 11 kts | 102° |
| 2026-05-01 13:14 | 50.88928 | 4.48122 | 179 ft | 12 kts | 90° |
| 2026-05-01 13:14 | 50.88953 | 4.48250 | 178 ft | 12 kts | 69° |
| 2026-05-01 13:14 | 50.88982 | 4.48379 | 178 ft | 12 kts | 70° |
| 2026-05-01 13:14 | 50.89012 | 4.48511 | 179 ft | 18 kts | 70° |
| 2026-05-01 13:15 | 50.89125 | 4.49001 | 177 ft | 83 kts | 70° |
| 2026-05-01 13:15 | 50.89397 | 4.50181 | 177 ft | 142 kts | 70° |
| 2026-05-01 13:15 | 50.89799 | 4.51839 | 415 ft | 167 kts | 72° |
| 2026-05-01 13:15 | 50.90256 | 4.53524 | 1138 ft | 167 kts | 68° |
| 2026-05-01 13:16 | 50.90771 | 4.55171 | 1884 ft | 167 kts | 66° |
| 2026-05-01 13:16 | 50.91301 | 4.56814 | 2544 ft | 168 kts | 67° |
| 2026-05-01 13:16 | 50.91830 | 4.58453 | 3195 ft | 167 kts | 66° |
| 2026-05-01 13:17 | 50.93649 | 4.64050 | 4302 ft | 219 kts | 66° |
| 2026-05-01 13:17 | 50.94239 | 4.66436 | 4541 ft | 246 kts | 74° |
| 2026-05-01 13:18 | 50.95283 | 4.72049 | 5724 ft | 276 kts | 78° |
| 2026-05-01 13:18 | 50.95427 | 4.75071 | 6566 ft | 276 kts | 99° |
| 2026-05-01 13:18 | 50.94931 | 4.77985 | 7436 ft | 273 kts | 117° |
| 2026-05-01 13:18 | 50.93904 | 4.80499 | 8313 ft | 272 kts | 135° |
| 2026-05-01 13:19 | 50.92413 | 4.82332 | 9124 ft | 274 kts | 150° |
| 2026-05-01 13:19 | 50.90774 | 4.83868 | 10087 ft | 273 kts | 151° |
| 2026-05-01 13:19 | 50.87357 | 4.86912 | 11143 ft | 300 kts | 151° |
| 2026-05-01 13:20 | 50.85491 | 4.88621 | 11498 ft | 318 kts | 150° |
| 2026-05-01 13:20 | 50.83564 | 4.90412 | 12132 ft | 325 kts | 150° |
| 2026-05-01 13:20 | 50.81599 | 4.92247 | 12835 ft | 330 kts | 150° |
| 2026-05-01 13:21 | 50.77603 | 4.95947 | 14297 ft | 336 kts | 150° |
| 2026-05-01 13:21 | 50.75559 | 4.97813 | 14956 ft | 340 kts | 150° |
| 2026-05-01 13:21 | 50.73510 | 4.99677 | 15584 ft | 343 kts | 150° |
| 2026-05-01 13:21 | 50.71427 | 5.01574 | 16210 ft | 347 kts | 150° |
| 2026-05-01 13:22 | 50.69323 | 5.03493 | 16827 ft | 351 kts | 150° |
| 2026-05-01 13:22 | 50.67228 | 5.05407 | 17429 ft | 355 kts | 150° |
| 2026-05-01 13:22 | 50.65059 | 5.07390 | 18051 ft | 358 kts | 150° |
| 2026-05-01 13:22 | 50.62887 | 5.09374 | 18657 ft | 362 kts | 150° |
| 2026-05-01 13:23 | 50.60702 | 5.11368 | 19176 ft | 365 kts | 150° |
| 2026-05-01 13:23 | 50.58522 | 5.13358 | 19688 ft | 369 kts | 150° |
| 2026-05-01 13:23 | 50.56286 | 5.15394 | 20220 ft | 373 kts | 150° |
| 2026-05-01 13:23 | 50.53998 | 5.17471 | 20746 ft | 377 kts | 150° |
| 2026-05-01 13:24 | 50.51746 | 5.19511 | 21283 ft | 380 kts | 149° |
| 2026-05-01 13:24 | 50.49451 | 5.21591 | 21818 ft | 383 kts | 149° |
| 2026-05-01 13:24 | 50.47132 | 5.23693 | 22355 ft | 386 kts | 149° |
| 2026-05-01 13:25 | 50.42441 | 5.27933 | 23399 ft | 392 kts | 149° |
| 2026-05-01 13:25 | 50.40067 | 5.30067 | 23875 ft | 396 kts | 149° |
| 2026-05-01 13:25 | 50.37659 | 5.32228 | 24283 ft | 399 kts | 149° |
| 2026-05-01 13:25 | 50.35246 | 5.34392 | 24699 ft | 401 kts | 149° |
| 2026-05-01 13:26 | 50.33605 | 5.35862 | 24974 ft | 403 kts | 149° |
| 2026-05-01 13:26 | 50.31165 | 5.38048 | 25378 ft | 405 kts | 149° |
| 2026-05-01 13:26 | 50.28716 | 5.40244 | 25771 ft | 407 kts | 149° |
| 2026-05-01 13:26 | 50.26251 | 5.42458 | 26154 ft | 409 kts | 149° |
| 2026-05-01 13:27 | 50.23778 | 5.44676 | 26522 ft | 412 kts | 149° |
| 2026-05-01 13:27 | 50.21283 | 5.46906 | 26858 ft | 415 kts | 150° |
| 2026-05-01 13:27 | 50.16235 | 5.51406 | 27536 ft | 421 kts | 150° |
| 2026-05-01 13:28 | 50.11158 | 5.55925 | 28239 ft | 425 kts | 149° |
| 2026-05-01 13:28 | 50.08549 | 5.58241 | 28655 ft | 425 kts | 150° |
| 2026-05-01 13:29 | 50.03462 | 5.62751 | 29661 ft | 421 kts | 149° |
| 2026-05-01 13:29 | 49.98373 | 5.67244 | 30483 ft | 422 kts | 150° |
| 2026-05-01 13:30 | 49.88155 | 5.76239 | 31279 ft | 422 kts | 150° |
| 2026-05-01 13:31 | 49.83071 | 5.80705 | 31282 ft | 419 kts | 150° |
| 2026-05-01 13:32 | 49.70329 | 5.91851 | 31272 ft | 423 kts | 150° |
| 2026-05-01 13:33 | 49.57522 | 6.02961 | 31265 ft | 422 kts | 150° |
| 2026-05-01 13:34 | 49.47354 | 6.11928 | 31286 ft | 420 kts | 144° |
| 2026-05-01 13:35 | 49.40513 | 6.20347 | 31269 ft | 420 kts | 141° |
| 2026-05-01 13:36 | 49.33673 | 6.28790 | 31252 ft | 421 kts | 141° |
| 2026-05-01 13:36 | 49.26810 | 6.37252 | 31252 ft | 423 kts | 141° |
| 2026-05-01 13:37 | 49.22218 | 6.42898 | 31258 ft | 424 kts | 141° |
| 2026-05-01 13:37 | 49.17623 | 6.48538 | 31262 ft | 424 kts | 141° |
| 2026-05-01 13:38 | 49.10731 | 6.56950 | 31266 ft | 425 kts | 141° |
| 2026-05-01 13:39 | 49.06074 | 6.62610 | 31282 ft | 424 kts | 141° |
| 2026-05-01 13:39 | 49.01351 | 6.67986 | 31275 ft | 425 kts | 150° |
| 2026-05-01 13:40 | 48.95810 | 6.71024 | 31262 ft | 426 kts | 170° |
| 2026-05-01 13:40 | 48.89889 | 6.71288 | 31260 ft | 427 kts | 181° |
| 2026-05-01 13:41 | 48.83988 | 6.71041 | 31263 ft | 427 kts | 181° |
| 2026-05-01 13:41 | 48.78049 | 6.70807 | 31264 ft | 427 kts | 181° |
| 2026-05-01 13:42 | 48.72110 | 6.70585 | 31264 ft | 427 kts | 181° |
| 2026-05-01 13:42 | 48.66184 | 6.70362 | 31267 ft | 427 kts | 181° |
| 2026-05-01 13:43 | 48.60246 | 6.70127 | 31262 ft | 427 kts | 181° |
| 2026-05-01 13:43 | 48.54314 | 6.69894 | 31266 ft | 426 kts | 181° |
| 2026-05-01 13:44 | 48.48381 | 6.69667 | 31277 ft | 426 kts | 181° |
| 2026-05-01 13:44 | 48.42449 | 6.69441 | 31266 ft | 426 kts | 181° |
| 2026-05-01 13:45 | 48.36514 | 6.69212 | 31260 ft | 427 kts | 181° |
| 2026-05-01 13:45 | 48.30576 | 6.68987 | 31268 ft | 427 kts | 181° |
| 2026-05-01 13:46 | 48.24638 | 6.68764 | 31263 ft | 427 kts | 181° |
| 2026-05-01 13:46 | 48.18707 | 6.68529 | 31274 ft | 426 kts | 181° |
| 2026-05-01 13:47 | 48.12782 | 6.68296 | 31278 ft | 425 kts | 181° |
| 2026-05-01 13:47 | 48.06910 | 6.68073 | 31280 ft | 425 kts | 181° |
| 2026-05-01 13:48 | 48.01000 | 6.67845 | 31282 ft | 424 kts | 181° |
| 2026-05-01 13:48 | 47.95100 | 6.67622 | 31287 ft | 423 kts | 181° |
| 2026-05-01 13:49 | 47.89216 | 6.67404 | 31292 ft | 423 kts | 181° |
| 2026-05-01 13:49 | 47.83338 | 6.67182 | 31291 ft | 422 kts | 181° |
| 2026-05-01 13:50 | 47.77465 | 6.66962 | 31287 ft | 422 kts | 181° |
| 2026-05-01 13:50 | 47.71593 | 6.66743 | 31276 ft | 422 kts | 181° |
| 2026-05-01 13:51 | 47.65723 | 6.66531 | 31286 ft | 422 kts | 181° |
| 2026-05-01 13:51 | 47.59855 | 6.66323 | 31272 ft | 422 kts | 181° |
| 2026-05-01 13:52 | 47.53983 | 6.66100 | 31288 ft | 421 kts | 181° |
| 2026-05-01 13:52 | 47.48124 | 6.65874 | 31278 ft | 421 kts | 181° |
| 2026-05-01 13:53 | 47.42281 | 6.65650 | 31276 ft | 420 kts | 181° |
| 2026-05-01 13:53 | 47.33511 | 6.65329 | 31277 ft | 420 kts | 181° |
| 2026-05-01 13:54 | 47.30577 | 6.65223 | 31121 ft | 422 kts | 181° |
| 2026-05-01 13:54 | 47.27653 | 6.65118 | 30877 ft | 421 kts | 181° |
| 2026-05-01 13:54 | 47.24741 | 6.64708 | 30632 ft | 419 kts | 191° |
| 2026-05-01 13:54 | 47.21934 | 6.63554 | 30390 ft | 418 kts | 201° |
| 2026-05-01 13:55 | 47.19328 | 6.61691 | 30111 ft | 418 kts | 211° |
| 2026-05-01 13:55 | 47.16987 | 6.59179 | 29825 ft | 415 kts | 220° |
| 2026-05-01 13:55 | 47.14855 | 6.56362 | 29397 ft | 410 kts | 221° |
| 2026-05-01 13:55 | 47.12767 | 6.53613 | 28851 ft | 406 kts | 221° |
| 2026-05-01 13:56 | 47.10645 | 6.50835 | 28323 ft | 402 kts | 220° |
| 2026-05-01 13:56 | 47.08566 | 6.48119 | 27793 ft | 399 kts | 220° |
| 2026-05-01 13:56 | 47.06502 | 6.45423 | 27279 ft | 395 kts | 220° |
| 2026-05-01 13:56 | 47.04480 | 6.42783 | 26783 ft | 392 kts | 220° |
| 2026-05-01 13:57 | 47.02445 | 6.40129 | 26281 ft | 390 kts | 220° |
| 2026-05-01 13:57 | 47.01079 | 6.38350 | 25953 ft | 388 kts | 220° |
| 2026-05-01 13:57 | 46.98418 | 6.34894 | 25321 ft | 385 kts | 220° |
| 2026-05-01 13:57 | 46.96420 | 6.32308 | 24868 ft | 383 kts | 220° |
| 2026-05-01 13:58 | 46.94430 | 6.29732 | 24406 ft | 381 kts | 220° |
| 2026-05-01 13:58 | 46.92450 | 6.27168 | 23939 ft | 379 kts | 220° |
| 2026-05-01 13:58 | 46.90480 | 6.24615 | 23418 ft | 377 kts | 220° |
| 2026-05-01 13:58 | 46.88528 | 6.22081 | 22958 ft | 373 kts | 220° |
| 2026-05-01 13:59 | 46.86595 | 6.19563 | 22484 ft | 370 kts | 220° |
| 2026-05-01 13:59 | 46.84686 | 6.17071 | 22030 ft | 367 kts | 220° |
| 2026-05-01 13:59 | 46.82793 | 6.14598 | 21559 ft | 365 kts | 220° |
| 2026-05-01 13:59 | 46.80905 | 6.12135 | 21084 ft | 362 kts | 220° |
| 2026-05-01 14:00 | 46.79026 | 6.09693 | 20627 ft | 360 kts | 220° |
| 2026-05-01 14:00 | 46.77163 | 6.07278 | 20205 ft | 357 kts | 220° |
| 2026-05-01 14:00 | 46.75314 | 6.04884 | 19807 ft | 353 kts | 220° |
| 2026-05-01 14:00 | 46.73387 | 6.02723 | 19393 ft | 348 kts | 207° |
| 2026-05-01 14:01 | 46.71143 | 6.01514 | 18965 ft | 343 kts | 189° |
| 2026-05-01 14:01 | 46.68778 | 6.01390 | 18543 ft | 339 kts | 175° |
| 2026-05-01 14:01 | 46.66426 | 6.01621 | 18054 ft | 338 kts | 175° |
| 2026-05-01 14:01 | 46.64089 | 6.01854 | 17602 ft | 336 kts | 175° |
| 2026-05-01 14:02 | 46.61761 | 6.02085 | 17131 ft | 333 kts | 176° |
| 2026-05-01 14:02 | 46.59458 | 6.02314 | 16471 ft | 330 kts | 176° |
| 2026-05-01 14:02 | 46.57178 | 6.02539 | 15849 ft | 328 kts | 176° |
| 2026-05-01 14:02 | 46.54926 | 6.02758 | 15254 ft | 325 kts | 176° |
| 2026-05-01 14:03 | 46.52684 | 6.02977 | 14663 ft | 322 kts | 176° |
| 2026-05-01 14:03 | 46.50452 | 6.03199 | 14076 ft | 320 kts | 176° |
| 2026-05-01 14:03 | 46.48234 | 6.03422 | 13433 ft | 318 kts | 176° |
| 2026-05-01 14:03 | 46.46042 | 6.03641 | 12833 ft | 315 kts | 176° |
| 2026-05-01 14:04 | 46.43858 | 6.03856 | 12229 ft | 313 kts | 176° |
| 2026-05-01 14:04 | 46.41694 | 6.03590 | 11742 ft | 314 kts | 195° |
| 2026-05-01 14:04 | 46.39743 | 6.02250 | 11353 ft | 312 kts | 214° |
| 2026-05-01 14:04 | 46.38560 | 6.00988 | 11079 ft | 311 kts | 216° |
| 2026-05-01 14:05 | 46.36273 | 5.98509 | 10547 ft | 309 kts | 216° |
| 2026-05-01 14:05 | 46.34559 | 5.96647 | 10155 ft | 308 kts | 216° |
| 2026-05-01 14:05 | 46.32853 | 5.94794 | 9836 ft | 303 kts | 216° |
| 2026-05-01 14:05 | 46.31189 | 5.92988 | 9563 ft | 296 kts | 216° |
| 2026-05-01 14:06 | 46.29559 | 5.91217 | 9307 ft | 290 kts | 216° |
| 2026-05-01 14:06 | 46.27963 | 5.89489 | 9045 ft | 284 kts | 216° |
| 2026-05-01 14:06 | 46.26401 | 5.87801 | 8788 ft | 278 kts | 216° |
| 2026-05-01 14:06 | 46.24870 | 5.86148 | 8528 ft | 272 kts | 216° |
| 2026-05-01 14:07 | 46.23374 | 5.84533 | 8380 ft | 263 kts | 216° |
| 2026-05-01 14:07 | 46.21940 | 5.82988 | 8254 ft | 252 kts | 216° |
| 2026-05-01 14:07 | 46.20552 | 5.81494 | 8132 ft | 246 kts | 216° |
| 2026-05-01 14:08 | 46.17840 | 5.78576 | 8007 ft | 243 kts | 216° |
| 2026-05-01 14:08 | 46.16480 | 5.77113 | 8008 ft | 246 kts | 216° |
| 2026-05-01 14:08 | 46.15124 | 5.75649 | 8008 ft | 245 kts | 216° |
| 2026-05-01 14:08 | 46.13745 | 5.74163 | 8007 ft | 245 kts | 216° |
| 2026-05-01 14:09 | 46.12387 | 5.72696 | 8001 ft | 244 kts | 216° |
| 2026-05-01 14:09 | 46.11026 | 5.71227 | 7996 ft | 244 kts | 214° |
| 2026-05-01 14:09 | 46.09531 | 5.70182 | 7931 ft | 242 kts | 192° |
| 2026-05-01 14:09 | 46.07872 | 5.70167 | 7750 ft | 241 kts | 166° |
| 2026-05-01 14:10 | 46.06381 | 5.71237 | 7581 ft | 242 kts | 139° |
| 2026-05-01 14:10 | 46.05326 | 5.73156 | 7413 ft | 243 kts | 123° |
| 2026-05-01 14:10 | 46.04426 | 5.75206 | 7236 ft | 243 kts | 123° |
| 2026-05-01 14:10 | 46.03533 | 5.77263 | 7092 ft | 243 kts | 119° |
| 2026-05-01 14:11 | 46.03162 | 5.79568 | 6830 ft | 241 kts | 82° |
| 2026-05-01 14:11 | 46.04949 | 5.83446 | 6300 ft | 236 kts | 45° |
| 2026-05-01 14:11 | 46.06121 | 5.85103 | 5985 ft | 236 kts | 45° |
| 2026-05-01 14:12 | 46.07278 | 5.86768 | 5662 ft | 235 kts | 45° |
| 2026-05-01 14:12 | 46.08426 | 5.88435 | 5367 ft | 233 kts | 45° |
| 2026-05-01 14:12 | 46.09563 | 5.90089 | 5068 ft | 229 kts | 46° |
| 2026-05-01 14:12 | 46.10657 | 5.91682 | 4781 ft | 219 kts | 45° |
| 2026-05-01 14:13 | 46.11715 | 5.93222 | 4496 ft | 213 kts | 46° |
| 2026-05-01 14:13 | 46.12412 | 5.94238 | 4305 ft | 210 kts | 46° |
| 2026-05-01 14:13 | 46.13747 | 5.96183 | 3967 ft | 203 kts | 46° |
| 2026-05-01 14:13 | 46.14724 | 5.97610 | 3684 ft | 196 kts | 45° |
| 2026-05-01 14:14 | 46.15362 | 5.98541 | 3515 ft | 191 kts | 45° |
| 2026-05-01 14:14 | 46.16266 | 5.99860 | 3270 ft | 183 kts | 44° |
| 2026-05-01 14:14 | 46.17136 | 6.01130 | 3030 ft | 174 kts | 45° |
| 2026-05-01 14:14 | 46.17966 | 6.02338 | 2772 ft | 166 kts | 45° |
| 2026-05-01 14:15 | 46.18750 | 6.03482 | 2558 ft | 156 kts | 45° |
| 2026-05-01 14:15 | 46.19493 | 6.04572 | 2392 ft | 150 kts | 45° |
| 2026-05-01 14:15 | 46.20226 | 6.05646 | 2182 ft | 148 kts | 45° |
| 2026-05-01 14:15 | 46.20948 | 6.06699 | 1955 ft | 147 kts | 46° |
| 2026-05-01 14:16 | 46.21664 | 6.07754 | 1765 ft | 147 kts | 46° |
| 2026-05-01 14:16 | 46.22376 | 6.08800 | 1582 ft | 146 kts | 46° |
| 2026-05-01 14:16 | 46.23091 | 6.09844 | 1413 ft | 145 kts | 46° |
| 2026-05-01 14:16 | 46.23647 | 6.10663 | 1381 ft | 73 kts | 45° |
| 2026-05-01 14:17 | 46.23847 | 6.10955 | 1379 ft | 17 kts | 45° |
| 2026-05-01 14:17 | 46.23834 | 6.11067 | 1379 ft | 12 kts | 153° |
| 2026-05-01 14:17 | 46.23766 | 6.11086 | 1381 ft | 7 kts | 171° |
| 2026-05-01 14:17 | 46.23721 | 6.11081 | 1386 ft | 9 kts | 197° |
| 2026-05-01 14:18 | 46.23671 | 6.11031 | 1386 ft | 7 kts | 225° |
| 2026-05-01 14:18 | 46.23643 | 6.10990 | 1388 ft | 5 kts | 225° |
| 2026-05-01 14:18 | 46.23623 | 6.10960 | 1388 ft | 3 kts | 225° |
| 2026-05-01 14:18 | 46.23593 | 6.10915 | 1389 ft | 10 kts | 226° |
| 2026-05-01 14:19 | 46.23531 | 6.10824 | 1391 ft | 15 kts | 225° |
| 2026-05-01 14:19 | 46.23451 | 6.10709 | 1398 ft | 16 kts | 225° |
| 2026-05-01 14:19 | 46.23377 | 6.10609 | 1392 ft | 14 kts | 223° |
| 2026-05-01 14:19 | 46.23314 | 6.10521 | 1401 ft | 11 kts | 216° |
| 2026-05-01 14:20 | 46.23260 | 6.10555 | 1393 ft | 9 kts | 137° |
| 2026-05-01 14:20 | 46.23141 | 6.10623 | 1399 ft | 8 kts | 225° |
| 2026-05-01 14:20 | 46.23091 | 6.10549 | 1393 ft | 6 kts | 226° |
| 2026-05-01 14:21 | 46.23058 | 6.10535 | 1398 ft | 4 kts | 158° |
| 2026-05-01 14:21 | 46.23039 | 6.10560 | 1398 ft | 3 kts | 136° |
| 2026-05-01 14:21 | 46.23032 | 6.10570 | 1396 ft | 0 kts | 136° |